Time;durP1;ratioP1;P1;durP2;ratioP2;P2;SDS_P1;SDS_P2;PMS_P1;PMS_P2;Temp;Humidity;BMP_temperature;BMP_pressure;BME280_temperature;BME280_humidity;BME280_pressure;Samples;Min_cycle;Max_cycle;Signal;HPM_P1;HPM_P2
2022/02/09 00:07:27;;;;;;;9.20;7.80;;;;;8.70;102295.00;;;;9591417;30;20241;-81
2022/02/09 00:17:56;;;;;;;8.23;7.40;;;;;8.60;102290.00;;;;9624767;30;20280;-80
2022/02/09 00:38:48;;;;;;;9.77;6.60;;;;;8.50;102260.00;;;;9640955;30;20264;-81
2022/02/09 01:02:44;;;;;;;8.43;6.87;;;;;8.40;102249.00;;;;9638721;30;20212;-81
2022/02/09 01:58:24;;;;;;;3.57;3.27;;;;;8.60;102223.00;;;;9590037;30;20296;-80
2022/02/09 02:03:27;;;;;;;3.40;2.77;;;;;8.60;102221.00;;;;9596209;30;20233;-80
2022/02/09 02:08:29;;;;;;;4.57;2.87;;;;;8.70;102212.00;;;;9611786;30;20355;-80
2022/02/09 02:14:22;;;;;;;3.53;2.63;;;;;8.70;102210.00;;;;9610324;30;20263;-80
2022/02/09 02:19:07;;;;;;;2.90;2.40;;;;;8.70;102209.00;;;;9601467;30;20224;-80
2022/02/09 03:12:04;;;;;;;8.37;6.47;;;;;8.70;102190.00;;;;9631558;30;20237;-80
2022/02/09 03:17:11;;;;;;;9.47;6.63;;;;;8.70;102183.00;;;;9607835;30;20260;-78
2022/02/09 03:54:05;;;;;;;7.53;6.43;;;;;8.70;102173.00;;;;9607168;30;20205;-79
2022/02/09 03:58:51;;;;;;;7.50;5.90;;;;;8.70;102164.00;;;;9608437;30;20264;-79
2022/02/09 04:03:53;;;;;;;10.10;6.53;;;;;8.70;102168.00;;;;9606865;30;20225;-79
2022/02/09 04:08:58;;;;;;;10.67;7.60;;;;;8.70;102163.00;;;;9620593;30;20217;-80
2022/02/09 04:40:33;;;;;;;9.90;7.93;;;;;8.70;102160.00;;;;9607292;30;20299;-80
2022/02/09 04:50:51;;;;;;;10.43;8.43;;;;;8.60;102168.00;;;;9635326;30;20197;-80
2022/02/09 04:56:01;;;;;;;10.03;7.90;;;;;8.60;102152.00;;;;9620707;30;20225;-79
2022/02/09 05:28:00;;;;;;;13.03;8.77;;;;;8.60;102136.00;;;;9635620;30;20244;-80
2022/02/09 05:33:06;;;;;;;12.87;9.33;;;;;8.70;102138.00;;;;9598097;30;20283;-79
2022/02/09 05:38:08;;;;;;;10.83;9.20;;;;;8.70;102138.00;;;;9612726;30;20267;-80
2022/02/09 05:43:11;;;;;;;11.37;8.33;;;;;8.70;102132.00;;;;9637522;30;20214;-80
2022/02/09 05:54:47;;;;;;;12.63;9.43;;;;;8.70;102142.00;;;;9590852;31;20205;-80
2022/02/09 06:04:26;;;;;;;12.93;9.43;;;;;8.70;102144.00;;;;9615927;30;20217;-79
2022/02/09 06:09:28;;;;;;;10.53;8.57;;;;;8.70;102147.00;;;;9611271;30;20272;-79
2022/02/09 06:19:43;;;;;;;8.90;7.03;;;;;8.70;102140.00;;;;9625401;30;20212;-80
2022/02/09 06:24:45;;;;;;;11.23;7.90;;;;;8.70;102142.00;;;;9611963;30;20544;-80
2022/02/09 06:29:47;;;;;;;9.50;7.13;;;;;8.70;102137.00;;;;9638592;30;20277;-79
2022/02/09 06:34:49;;;;;;;8.80;7.13;;;;;8.70;102143.00;;;;9623280;30;20264;-79
2022/02/09 06:39:57;;;;;;;9.87;6.43;;;;;8.70;102137.00;;;;9619924;30;20213;-80
2022/02/09 06:45:05;;;;;;;7.17;5.90;;;;;8.70;102146.00;;;;9638270;30;20237;-79
2022/02/09 06:50:13;;;;;;;6.80;5.40;;;;;8.70;102138.00;;;;9623869;30;20213;-80
2022/02/09 06:55:20;;;;;;;6.87;5.63;;;;;8.70;102131.00;;;;9610424;30;20225;-80
2022/02/09 07:00:23;;;;;;;7.03;5.67;;;;;8.70;102130.00;;;;9608347;30;20201;-79
2022/02/09 07:05:25;;;;;;;7.70;6.07;;;;;8.70;102133.00;;;;9621228;30;20643;-80
2022/02/09 07:10:27;;;;;;;7.87;6.40;;;;;8.70;102140.00;;;;9636509;30;20742;-79
2022/02/09 07:15:33;;;;;;;9.03;6.17;;;;;8.70;102142.00;;;;9594297;30;20237;-79
2022/02/09 07:21:15;;;;;;;7.97;5.60;;;;;8.70;102147.00;;;;9607201;30;20254;-79
2022/02/09 07:31:10;;;;;;;7.37;5.43;;;;;8.80;102142.00;;;;9617859;30;20201;-79
2022/02/09 07:36:14;;;;;;;8.70;5.30;;;;;8.80;102150.00;;;;9617087;30;20279;-80
2022/02/09 07:41:18;;;;;;;8.27;4.47;;;;;8.80;102141.00;;;;9595055;30;20240;-80
2022/02/09 07:46:54;;;;;;;7.53;4.80;;;;;8.90;102147.00;;;;9636745;30;20213;-80
2022/02/09 07:52:05;;;;;;;7.77;4.73;;;;;9.00;102149.00;;;;9628781;30;20232;-80
2022/02/09 07:57:07;;;;;;;7.90;5.20;;;;;9.10;102138.00;;;;9634436;30;20228;-79
2022/02/09 08:02:09;;;;;;;8.27;5.07;;;;;9.10;102136.00;;;;9617092;30;20243;-79
2022/02/09 08:07:11;;;;;;;8.07;6.20;;;;;9.10;102136.00;;;;9604621;30;20257;-80
2022/02/09 08:33:29;;;;;;;11.27;6.70;;;;;9.40;102140.00;;;;9638214;30;20225;-79
2022/02/09 08:38:31;;;;;;;12.47;6.83;;;;;9.40;102133.00;;;;9634385;30;20228;-79
2022/02/09 08:43:33;;;;;;;12.50;6.53;;;;;9.50;102132.00;;;;9614613;30;20205;-79
2022/02/09 08:48:37;;;;;;;9.93;6.70;;;;;9.70;102119.00;;;;9618145;30;20194;-79
2022/02/09 08:53:39;;;;;;;8.20;6.10;;;;;9.90;102122.00;;;;9621681;30;20295;-79
2022/02/09 08:58:43;;;;;;;14.83;6.67;;;;;10.10;102106.00;;;;9618806;30;20690;-79
2022/02/09 09:03:51;;;;;;;11.00;6.07;;;;;10.20;102107.00;;;;9648160;30;20745;-80
2022/02/09 09:42:19;;;;;;;7.70;4.93;;;;;10.90;102084.00;;;;9639314;30;20217;-79
2022/02/09 10:02:56;;;;;;;10.07;5.90;;;;;11.30;102091.00;;;;9606030;30;20233;-80
2022/02/09 10:35:19;;;;;;;8.93;4.63;;;;;12.30;102091.00;;;;9613609;30;20612;-78
2022/02/09 10:40:39;;;;;;;10.43;4.40;;;;;12.30;102086.00;;;;9633711;30;20209;-78
2022/02/09 10:45:50;;;;;;;7.17;4.50;;;;;12.30;102097.00;;;;9613757;30;20205;-78
2022/02/09 10:50:52;;;;;;;10.07;4.77;;;;;12.40;102094.00;;;;9610925;30;20213;-77
2022/02/09 10:55:54;;;;;;;11.37;6.43;;;;;12.50;102089.00;;;;9622395;30;20220;-77
2022/02/09 11:00:56;;;;;;;10.33;5.30;;;;;12.50;102093.00;;;;9608636;30;20205;-77
2022/02/09 11:06:01;;;;;;;8.23;5.60;;;;;12.50;102086.00;;;;9640024;30;20887;-78
2022/02/09 11:11:03;;;;;;;11.03;6.80;;;;;12.50;102084.00;;;;9632350;30;20213;-77
2022/02/09 11:16:06;;;;;;;13.40;6.93;;;;;12.60;102088.00;;;;9610979;30;20673;-78
2022/02/09 11:21:12;;;;;;;8.67;5.50;;;;;12.60;102082.00;;;;9627182;30;20205;-78
2022/02/09 11:26:29;;;;;;;11.30;6.77;;;;;12.70;102076.00;;;;9622274;30;20603;-78
2022/02/09 11:31:35;;;;;;;13.50;6.80;;;;;12.70;102071.00;;;;9633969;30;20232;-80
2022/02/09 11:36:52;;;;;;;13.07;7.97;;;;;12.90;102088.00;;;;9616640;30;20225;-78
2022/02/09 11:42:44;;;;;;;15.07;7.63;;;;;13.10;102082.00;;;;9618876;30;20225;-78
2022/02/09 11:48:10;;;;;;;11.70;6.47;;;;;13.10;102079.00;;;;9604306;30;20213;-77
2022/02/09 11:58:52;;;;;;;7.23;4.13;;;;;13.30;102080.00;;;;9624608;30;20273;-78
2022/02/09 12:15:11;;;;;;;7.73;4.60;;;;;13.10;102071.00;;;;9634119;30;20237;-79
2022/02/09 12:20:28;;;;;;;6.57;4.27;;;;;13.10;102065.00;;;;9618072;30;20204;-79
2022/02/09 12:25:45;;;;;;;3.97;3.07;;;;;13.30;102052.00;;;;9599220;30;20201;-78
2022/02/09 12:30:48;;;;;;;4.10;2.20;;;;;13.20;102062.00;;;;9601350;30;20201;-79
2022/02/09 12:35:51;;;;;;;3.97;2.00;;;;;13.30;102058.00;;;;9631482;30;20304;-80
2022/02/09 12:41:12;;;;;;;6.07;2.10;;;;;13.30;102046.00;;;;9636804;30;20225;-79
2022/02/09 12:46:32;;;;;;;3.97;1.93;;;;;13.00;102039.00;;;;9609837;30;20204;-78
2022/02/09 12:51:35;;;;;;;4.43;1.97;;;;;12.80;102026.00;;;;9627098;30;20229;-78
2022/02/09 12:56:44;;;;;;;2.37;1.70;;;;;12.50;102026.00;;;;9626689;30;20319;-80
2022/02/09 13:01:55;;;;;;;4.60;2.03;;;;;12.20;102024.00;;;;9614970;30;20273;-79
2022/02/09 13:06:58;;;;;;;4.67;2.20;;;;;12.30;102011.00;;;;9621702;30;20655;-79
2022/02/09 13:12:00;;;;;;;4.47;2.50;;;;;12.30;102008.00;;;;9619067;30;20750;-79
2022/02/09 13:17:29;;;;;;;6.90;2.40;;;;;13.70;102001.00;;;;9631514;30;20754;-78
2022/02/09 14:16:26;;;;;;;1.80;1.20;;;;;15.50;101981.00;;;;9609148;30;20221;-79
2022/02/09 14:48:39;;;;;;;2.50;2.20;;;;;14.40;101973.00;;;;9613691;30;20224;-78
2022/02/09 14:58:40;;;;;;;3.73;1.97;;;;;13.30;101963.00;;;;9618153;30;20259;-78
2022/02/09 15:14:10;;;;;;;3.20;1.50;;;;;12.40;101956.00;;;;9627097;30;20221;-79
2022/02/09 15:19:21;;;;;;;7.87;1.50;;;;;12.20;101948.00;;;;9602125;30;20342;-78
2022/02/09 15:24:28;;;;;;;3.60;1.77;;;;;12.00;101948.00;;;;9595541;30;20213;-78
2022/02/09 15:29:30;;;;;;;1.87;1.57;;;;;11.80;101946.00;;;;9600047;30;20269;-78
2022/02/09 15:34:38;;;;;;;2.93;2.03;;;;;11.70;101946.00;;;;9599098;30;20295;-78
2022/02/09 15:39:45;;;;;;;2.83;1.70;;;;;11.60;101939.00;;;;9596455;30;20304;-78
2022/02/09 16:11:46;;;;;;;4.03;2.13;;;;;11.10;101917.00;;;;9613354;30;20635;-78
2022/02/09 16:22:23;;;;;;;5.33;2.80;;;;;10.90;101899.00;;;;9614912;30;20679;-79
2022/02/09 16:38:14;;;;;;;5.53;3.07;;;;;10.70;101890.00;;;;9616473;30;20255;-78
2022/02/09 16:48:43;;;;;;;5.10;2.90;;;;;10.60;101892.00;;;;9606404;30;20204;-78
2022/02/09 17:20:00;;;;;;;4.07;2.70;;;;;10.30;101893.00;;;;9622683;30;20287;-79
2022/02/09 17:25:02;;;;;;;4.10;2.87;;;;;10.30;101891.00;;;;9633830;30;20237;-79
2022/02/09 17:30:35;;;;;;;3.53;2.90;;;;;10.20;101895.00;;;;9621523;30;20201;-78
2022/02/09 17:35:42;;;;;;;7.33;3.60;;;;;10.20;101897.00;;;;9622186;30;20324;-79
2022/02/09 17:56:50;;;;;;;6.93;3.97;;;;;10.10;101879.00;;;;9589820;30;20229;-79
2022/02/09 18:01:52;;;;;;;8.53;4.00;;;;;10.10;101879.00;;;;9606275;30;20289;-78
2022/02/09 18:07:02;;;;;;;7.03;3.77;;;;;10.10;101878.00;;;;9620204;30;20324;-78
2022/02/09 18:12:28;;;;;;;7.83;3.60;;;;;10.10;101878.00;;;;9619837;30;20244;-78
2022/02/09 19:01:01;;;;;;;10.93;6.50;;;;;9.90;101848.00;;;;9633487;30;20233;-77
2022/02/09 19:05:44;;;;;;;9.50;6.90;;;;;9.90;101854.00;;;;9606743;30;20328;-78
2022/02/09 19:49:32;;;;;;;12.97;7.73;;;;;9.70;101821.00;;;;9602627;30;20615;-78
2022/02/09 19:55:00;;;;;;;10.17;7.87;;;;;9.70;101818.00;;;;9595971;30;20221;-78
2022/02/09 20:00:04;;;;;;;15.10;8.50;;;;;9.60;101800.00;;;;9628246;30;20236;-78
2022/02/09 20:05:08;;;;;;;9.80;7.27;;;;;9.60;101808.00;;;;9609484;30;20222;-78
2022/02/09 20:10:12;;;;;;;10.47;8.60;;;;;9.60;101808.00;;;;9586685;30;20216;-78
2022/02/09 20:15:17;;;;;;;15.13;8.27;;;;;9.60;101815.00;;;;9602923;30;20246;-78
2022/02/09 20:20:26;;;;;;;13.77;8.23;;;;;9.60;101814.00;;;;9612750;30;20242;-78
2022/02/09 20:25:29;;;;;;;15.97;8.73;;;;;9.60;101808.00;;;;9591612;30;20210;-79
2022/02/09 20:30:34;;;;;;;13.00;9.33;;;;;9.50;101819.00;;;;9598499;30;20213;-78
2022/02/09 20:35:36;;;;;;;11.57;8.80;;;;;9.50;101819.00;;;;9594564;30;20236;-78
2022/02/09 20:40:48;;;;;;;12.43;9.67;;;;;9.50;101823.00;;;;9576534;30;20205;-78
2022/02/09 20:45:58;;;;;;;14.17;10.40;;;;;9.40;101816.00;;;;9620683;30;20205;-78
2022/02/09 20:51:01;;;;;;;14.00;9.37;;;;;9.50;101809.00;;;;9634579;30;20228;-79
2022/02/09 20:56:08;;;;;;;14.67;9.33;;;;;9.50;101808.00;;;;9591370;30;20315;-78
2022/02/09 21:01:16;;;;;;;14.50;9.87;;;;;9.40;101812.00;;;;9612293;30;20210;-78
2022/02/09 21:53:47;;;;;;;19.90;10.83;;;;;9.00;101786.00;;;;9620184;30;20198;-78
2022/02/09 22:31:03;;;;;;;20.00;12.20;;;;;8.50;101735.00;;;;9623476;30;20717;-78
2022/02/09 22:57:10;;;;;;;22.53;12.77;;;;;8.20;101698.00;;;;9625026;30;20229;-78
2022/02/09 23:02:24;;;;;;;20.17;12.47;;;;;8.10;101696.00;;;;9606624;30;20478;-78
2022/02/09 23:07:40;;;;;;;20.50;11.63;;;;;8.00;101696.00;;;;9600196;30;20236;-78
2022/02/09 23:12:52;;;;;;;19.47;11.37;;;;;7.90;101690.00;;;;9607528;30;20240;-78
2022/02/09 23:52:39;;;;;;;22.77;12.80;;;;;7.50;101674.00;;;;9606863;30;20202;-77
2022/02/09 23:56:11;;;;;;;29.77;16.77;;;;;6.30;101655.00;;;;9599574;30;20214;-77
